Terminal Aerodrome Forecast
Issued by NWS Cleveland, OH

Home | Current Version | Previous Version | Graphics & Text | Print | Product List | Glossary Off
Versions: 1 2 3 4 5 6 7 8 9 10 11 12 13 14 15 16 17

322
FTUS41 KCLE 240916 AAA
TAFYNG
TAF AMD
KYNG 240916Z 2409/2506 36008KT P6SM SCT015 BKN035
     FM241400 02008KT P6SM BKN035
     FM241600 02008KT P6SM SCT040
     FM242300 04004KT P6SM SKC=

USA.gov is the U.S. government's official web portal to all federal, state and local government web resources and services.